sensor_id;sensor_type;location;lat;lon;timestamp;P1;durP1;ratioP1;P2;durP2;ratioP2
1076;SDS011;64114;48.726;9.370;2022-11-27T00:01:07;18.60;;;13.27;;
1076;SDS011;64114;48.726;9.370;2022-11-27T00:03:35;22.07;;;13.67;;
1076;SDS011;64114;48.726;9.370;2022-11-27T00:06:04;16.60;;;13.00;;
1076;SDS011;64114;48.726;9.370;2022-11-27T00:08:33;15.73;;;13.10;;
1076;SDS011;64114;48.726;9.370;2022-11-27T00:11:05;18.57;;;13.30;;
1076;SDS011;64114;48.726;9.370;2022-11-27T00:13:34;18.03;;;13.40;;
1076;SDS011;64114;48.726;9.370;2022-11-27T00:16:02;16.67;;;12.87;;
1076;SDS011;64114;48.726;9.370;2022-11-27T00:18:32;22.10;;;13.33;;
1076;SDS011;64114;48.726;9.370;2022-11-27T00:21:01;20.73;;;13.70;;
1076;SDS011;64114;48.726;9.370;2022-11-27T00:23:31;19.27;;;12.90;;
1076;SDS011;64114;48.726;9.370;2022-11-27T00:26:01;19.63;;;13.50;;
1076;SDS011;64114;48.726;9.370;2022-11-27T00:28:30;18.53;;;12.80;;
1076;SDS011;64114;48.726;9.370;2022-11-27T00:30:59;15.10;;;12.60;;
1076;SDS011;64114;48.726;9.370;2022-11-27T00:33:27;26.50;;;13.83;;
1076;SDS011;64114;48.726;9.370;2022-11-27T00:35:56;20.93;;;12.37;;
1076;SDS011;64114;48.726;9.370;2022-11-27T00:38:28;19.83;;;12.73;;
1076;SDS011;64114;48.726;9.370;2022-11-27T00:41:05;19.60;;;13.40;;
1076;SDS011;64114;48.726;9.370;2022-11-27T00:43:34;22.00;;;14.37;;
1076;SDS011;64114;48.726;9.370;2022-11-27T00:46:10;23.00;;;15.27;;
1076;SDS011;64114;48.726;9.370;2022-11-27T00:48:38;24.50;;;15.03;;
1076;SDS011;64114;48.726;9.370;2022-11-27T00:51:07;22.93;;;15.40;;
1076;SDS011;64114;48.726;9.370;2022-11-27T00:53:36;24.10;;;13.97;;
1076;SDS011;64114;48.726;9.370;2022-11-27T00:56:06;22.83;;;14.37;;
1076;SDS011;64114;48.726;9.370;2022-11-27T00:58:35;21.37;;;15.43;;
1076;SDS011;64114;48.726;9.370;2022-11-27T01:01:03;19.77;;;14.10;;
1076;SDS011;64114;48.726;9.370;2022-11-27T01:03:32;20.43;;;13.70;;
1076;SDS011;64114;48.726;9.370;2022-11-27T01:06:02;19.33;;;14.47;;
1076;SDS011;64114;48.726;9.370;2022-11-27T01:08:30;19.70;;;13.80;;
1076;SDS011;64114;48.726;9.370;2022-11-27T01:10:59;21.57;;;13.60;;
1076;SDS011;64114;48.726;9.370;2022-11-27T01:13:29;22.30;;;13.90;;
1076;SDS011;64114;48.726;9.370;2022-11-27T01:15:59;19.07;;;14.20;;
1076;SDS011;64114;48.726;9.370;2022-11-27T01:18:29;20.20;;;13.40;;
1076;SDS011;64114;48.726;9.370;2022-11-27T01:20:57;18.60;;;13.60;;
1076;SDS011;64114;48.726;9.370;2022-11-27T01:23:25;21.13;;;13.63;;
1076;SDS011;64114;48.726;9.370;2022-11-27T01:25:53;19.57;;;12.40;;
1076;SDS011;64114;48.726;9.370;2022-11-27T01:28:21;19.93;;;13.50;;
1076;SDS011;64114;48.726;9.370;2022-11-27T01:30:51;22.30;;;13.23;;
1076;SDS011;64114;48.726;9.370;2022-11-27T01:33:20;19.30;;;13.00;;
1076;SDS011;64114;48.726;9.370;2022-11-27T01:35:54;25.47;;;13.70;;
1076;SDS011;64114;48.726;9.370;2022-11-27T01:38:22;20.13;;;12.70;;
1076;SDS011;64114;48.726;9.370;2022-11-27T01:40:55;18.67;;;13.63;;
1076;SDS011;64114;48.726;9.370;2022-11-27T01:43:37;17.03;;;12.80;;
1076;SDS011;64114;48.726;9.370;2022-11-27T01:46:13;15.23;;;12.60;;
1076;SDS011;64114;48.726;9.370;2022-11-27T01:48:54;16.33;;;12.80;;
1076;SDS011;64114;48.726;9.370;2022-11-27T01:51:24;19.37;;;11.67;;
1076;SDS011;64114;48.726;9.370;2022-11-27T01:53:52;17.57;;;12.20;;
1076;SDS011;64114;48.726;9.370;2022-11-27T01:56:21;18.17;;;13.00;;
1076;SDS011;64114;48.726;9.370;2022-11-27T01:58:50;19.27;;;12.67;;
1076;SDS011;64114;48.726;9.370;2022-11-27T02:01:19;16.77;;;11.87;;
1076;SDS011;64114;48.726;9.370;2022-11-27T02:03:49;16.80;;;12.20;;
1076;SDS011;64114;48.726;9.370;2022-11-27T02:06:18;14.03;;;10.30;;
1076;SDS011;64114;48.726;9.370;2022-11-27T02:08:46;19.30;;;11.93;;
1076;SDS011;64114;48.726;9.370;2022-11-27T02:11:15;15.27;;;11.10;;
1076;SDS011;64114;48.726;9.370;2022-11-27T02:13:51;14.67;;;12.00;;
1076;SDS011;64114;48.726;9.370;2022-11-27T02:16:28;16.50;;;11.40;;
1076;SDS011;64114;48.726;9.370;2022-11-27T02:19:03;15.40;;;10.90;;
1076;SDS011;64114;48.726;9.370;2022-11-27T02:21:41;13.40;;;10.77;;
1076;SDS011;64114;48.726;9.370;2022-11-27T02:24:22;22.17;;;11.77;;
1076;SDS011;64114;48.726;9.370;2022-11-27T02:27:04;14.60;;;10.30;;
1076;SDS011;64114;48.726;9.370;2022-11-27T02:29:52;13.27;;;10.43;;
1076;SDS011;64114;48.726;9.370;2022-11-27T02:32:23;15.53;;;10.27;;
1076;SDS011;64114;48.726;9.370;2022-11-27T02:34:57;18.33;;;9.97;;
1076;SDS011;64114;48.726;9.370;2022-11-27T02:37:31;17.43;;;10.90;;
1076;SDS011;64114;48.726;9.370;2022-11-27T02:40:03;15.30;;;11.20;;
1076;SDS011;64114;48.726;9.370;2022-11-27T02:42:36;14.87;;;11.30;;
1076;SDS011;64114;48.726;9.370;2022-11-27T02:45:11;15.03;;;10.83;;
1076;SDS011;64114;48.726;9.370;2022-11-27T02:47:42;12.70;;;9.60;;
1076;SDS011;64114;48.726;9.370;2022-11-27T02:50:15;13.60;;;9.83;;
1076;SDS011;64114;48.726;9.370;2022-11-27T02:52:46;12.03;;;9.87;;
1076;SDS011;64114;48.726;9.370;2022-11-27T02:55:16;11.73;;;9.43;;
1076;SDS011;64114;48.726;9.370;2022-11-27T02:57:48;14.73;;;9.77;;
1076;SDS011;64114;48.726;9.370;2022-11-27T03:00:19;16.03;;;10.73;;
1076;SDS011;64114;48.726;9.370;2022-11-27T03:02:48;17.77;;;11.40;;
1076;SDS011;64114;48.726;9.370;2022-11-27T03:05:20;15.67;;;10.40;;
1076;SDS011;64114;48.726;9.370;2022-11-27T03:07:51;17.57;;;11.60;;
1076;SDS011;64114;48.726;9.370;2022-11-27T03:10:26;16.63;;;11.10;;
1076;SDS011;64114;48.726;9.370;2022-11-27T03:12:59;18.30;;;10.63;;
1076;SDS011;64114;48.726;9.370;2022-11-27T03:15:32;14.70;;;10.33;;
1076;SDS011;64114;48.726;9.370;2022-11-27T03:18:07;15.60;;;10.10;;
1076;SDS011;64114;48.726;9.370;2022-11-27T03:20:42;16.67;;;11.40;;
1076;SDS011;64114;48.726;9.370;2022-11-27T03:23:15;18.00;;;11.03;;
1076;SDS011;64114;48.726;9.370;2022-11-27T03:25:42;15.60;;;10.10;;
1076;SDS011;64114;48.726;9.370;2022-11-27T03:28:10;12.67;;;9.30;;
1076;SDS011;64114;48.726;9.370;2022-11-27T03:30:42;16.53;;;11.40;;
1076;SDS011;64114;48.726;9.370;2022-11-27T03:33:10;15.17;;;10.03;;
1076;SDS011;64114;48.726;9.370;2022-11-27T03:35:38;15.73;;;10.50;;
1076;SDS011;64114;48.726;9.370;2022-11-27T03:38:06;13.97;;;9.47;;
1076;SDS011;64114;48.726;9.370;2022-11-27T03:40:35;15.03;;;10.40;;
1076;SDS011;64114;48.726;9.370;2022-11-27T03:43:12;14.80;;;10.07;;
1076;SDS011;64114;48.726;9.370;2022-11-27T03:45:47;13.93;;;9.20;;
1076;SDS011;64114;48.726;9.370;2022-11-27T03:48:21;12.57;;;10.37;;
1076;SDS011;64114;48.726;9.370;2022-11-27T03:51:12;15.50;;;10.60;;
1076;SDS011;64114;48.726;9.370;2022-11-27T03:53:48;14.67;;;11.50;;
1076;SDS011;64114;48.726;9.370;2022-11-27T03:56:21;15.60;;;10.70;;
1076;SDS011;64114;48.726;9.370;2022-11-27T03:59:01;15.27;;;10.33;;
1076;SDS011;64114;48.726;9.370;2022-11-27T04:01:35;14.00;;;9.90;;
1076;SDS011;64114;48.726;9.370;2022-11-27T04:04:04;12.87;;;10.90;;
1076;SDS011;64114;48.726;9.370;2022-11-27T04:06:31;12.97;;;10.17;;
1076;SDS011;64114;48.726;9.370;2022-11-27T04:09:00;13.83;;;11.17;;
1076;SDS011;64114;48.726;9.370;2022-11-27T04:11:28;14.77;;;10.33;;
1076;SDS011;64114;48.726;9.370;2022-11-27T04:13:57;11.30;;;9.47;;
1076;SDS011;64114;48.726;9.370;2022-11-27T04:16:25;14.93;;;9.97;;
1076;SDS011;64114;48.726;9.370;2022-11-27T04:18:55;17.63;;;11.50;;
1076;SDS011;64114;48.726;9.370;2022-11-27T04:21:23;12.03;;;9.83;;
1076;SDS011;64114;48.726;9.370;2022-11-27T04:24:30;14.47;;;9.00;;
1076;SDS011;64114;48.726;9.370;2022-11-27T04:27:04;13.27;;;9.90;;
1076;SDS011;64114;48.726;9.370;2022-11-27T04:29:36;13.47;;;10.00;;
1076;SDS011;64114;48.726;9.370;2022-11-27T04:32:33;13.10;;;10.33;;
1076;SDS011;64114;48.726;9.370;2022-11-27T04:35:14;12.97;;;9.53;;
1076;SDS011;64114;48.726;9.370;2022-11-27T04:38:05;15.90;;;11.20;;
1076;SDS011;64114;48.726;9.370;2022-11-27T04:41:13;8.60;;;8.10;;
1076;SDS011;64114;48.726;9.370;2022-11-27T04:44:06;12.70;;;9.50;;
1076;SDS011;64114;48.726;9.370;2022-11-27T04:47:01;12.93;;;10.10;;
1076;SDS011;64114;48.726;9.370;2022-11-27T04:49:33;15.70;;;10.73;;
1076;SDS011;64114;48.726;9.370;2022-11-27T04:52:15;12.73;;;8.80;;
1076;SDS011;64114;48.726;9.370;2022-11-27T04:54:48;9.87;;;7.47;;
1076;SDS011;64114;48.726;9.370;2022-11-27T04:57:22;13.70;;;7.57;;
1076;SDS011;64114;48.726;9.370;2022-11-27T05:00:27;9.00;;;7.57;;
1076;SDS011;64114;48.726;9.370;2022-11-27T05:02:57;13.43;;;8.93;;
1076;SDS011;64114;48.726;9.370;2022-11-27T05:05:33;15.07;;;8.77;;
1076;SDS011;64114;48.726;9.370;2022-11-27T05:08:06;9.30;;;8.83;;
1076;SDS011;64114;48.726;9.370;2022-11-27T05:10:39;12.63;;;9.63;;
1076;SDS011;64114;48.726;9.370;2022-11-27T05:13:23;14.37;;;8.13;;
1076;SDS011;64114;48.726;9.370;2022-11-27T05:15:52;11.00;;;7.93;;
1076;SDS011;64114;48.726;9.370;2022-11-27T05:18:25;9.27;;;8.07;;
1076;SDS011;64114;48.726;9.370;2022-11-27T05:21:00;10.47;;;9.03;;
1076;SDS011;64114;48.726;9.370;2022-11-27T05:23:33;10.47;;;7.70;;
1076;SDS011;64114;48.726;9.370;2022-11-27T05:26:01;12.47;;;7.33;;
1076;SDS011;64114;48.726;9.370;2022-11-27T05:28:29;14.27;;;9.47;;
1076;SDS011;64114;48.726;9.370;2022-11-27T05:30:57;10.23;;;8.00;;
1076;SDS011;64114;48.726;9.370;2022-11-27T05:33:26;8.20;;;7.80;;
1076;SDS011;64114;48.726;9.370;2022-11-27T05:35:53;11.10;;;8.33;;
1076;SDS011;64114;48.726;9.370;2022-11-27T05:38:21;11.50;;;8.30;;
1076;SDS011;64114;48.726;9.370;2022-11-27T05:40:50;10.30;;;8.10;;
1076;SDS011;64114;48.726;9.370;2022-11-27T05:43:18;7.73;;;6.90;;
1076;SDS011;64114;48.726;9.370;2022-11-27T05:45:45;11.00;;;7.03;;
1076;SDS011;64114;48.726;9.370;2022-11-27T05:48:13;8.83;;;7.37;;
1076;SDS011;64114;48.726;9.370;2022-11-27T05:50:41;12.00;;;7.60;;
1076;SDS011;64114;48.726;9.370;2022-11-27T05:53:10;9.70;;;6.43;;
1076;SDS011;64114;48.726;9.370;2022-11-27T05:55:38;12.37;;;8.53;;
1076;SDS011;64114;48.726;9.370;2022-11-27T05:58:08;8.20;;;6.73;;
1076;SDS011;64114;48.726;9.370;2022-11-27T06:00:35;12.03;;;8.40;;
1076;SDS011;64114;48.726;9.370;2022-11-27T06:03:03;12.40;;;7.70;;
1076;SDS011;64114;48.726;9.370;2022-11-27T06:05:31;14.70;;;8.03;;
1076;SDS011;64114;48.726;9.370;2022-11-27T06:07:59;10.67;;;8.03;;
1076;SDS011;64114;48.726;9.370;2022-11-27T06:10:28;11.33;;;7.80;;
1076;SDS011;64114;48.726;9.370;2022-11-27T06:12:56;9.90;;;8.40;;
1076;SDS011;64114;48.726;9.370;2022-11-27T06:15:26;9.17;;;7.30;;
1076;SDS011;64114;48.726;9.370;2022-11-27T06:17:54;11.27;;;8.07;;
1076;SDS011;64114;48.726;9.370;2022-11-27T06:20:22;10.77;;;8.03;;
1076;SDS011;64114;48.726;9.370;2022-11-27T06:22:50;12.53;;;8.33;;
1076;SDS011;64114;48.726;9.370;2022-11-27T06:25:18;9.97;;;7.47;;
1076;SDS011;64114;48.726;9.370;2022-11-27T06:27:46;15.20;;;7.93;;
1076;SDS011;64114;48.726;9.370;2022-11-27T06:30:14;11.70;;;8.20;;
1076;SDS011;64114;48.726;9.370;2022-11-27T06:32:43;8.88;;;7.82;;
1076;SDS011;64114;48.726;9.370;2022-11-27T06:35:11;10.37;;;7.70;;
1076;SDS011;64114;48.726;9.370;2022-11-27T06:37:39;9.73;;;7.87;;
1076;SDS011;64114;48.726;9.370;2022-11-27T06:40:07;11.27;;;7.50;;
1076;SDS011;64114;48.726;9.370;2022-11-27T06:42:35;11.03;;;7.07;;
1076;SDS011;64114;48.726;9.370;2022-11-27T06:45:03;13.00;;;8.17;;
1076;SDS011;64114;48.726;9.370;2022-11-27T06:47:32;11.53;;;7.93;;
1076;SDS011;64114;48.726;9.370;2022-11-27T06:50:01;10.77;;;8.50;;
1076;SDS011;64114;48.726;9.370;2022-11-27T06:52:29;10.60;;;7.83;;
1076;SDS011;64114;48.726;9.370;2022-11-27T06:55:05;9.60;;;6.97;;
1076;SDS011;64114;48.726;9.370;2022-11-27T06:57:34;9.60;;;7.90;;
1076;SDS011;64114;48.726;9.370;2022-11-27T07:00:02;10.70;;;7.40;;
1076;SDS011;64114;48.726;9.370;2022-11-27T07:02:30;12.07;;;8.23;;
1076;SDS011;64114;48.726;9.370;2022-11-27T07:04:59;11.83;;;8.10;;
1076;SDS011;64114;48.726;9.370;2022-11-27T07:07:28;8.70;;;7.13;;
1076;SDS011;64114;48.726;9.370;2022-11-27T07:09:56;16.33;;;8.20;;
1076;SDS011;64114;48.726;9.370;2022-11-27T07:12:24;10.87;;;8.33;;
1076;SDS011;64114;48.726;9.370;2022-11-27T07:14:52;8.70;;;7.87;;
1076;SDS011;64114;48.726;9.370;2022-11-27T07:17:20;8.40;;;7.70;;
1076;SDS011;64114;48.726;9.370;2022-11-27T07:19:47;10.53;;;7.37;;
1076;SDS011;64114;48.726;9.370;2022-11-27T07:22:15;11.63;;;8.57;;
1076;SDS011;64114;48.726;9.370;2022-11-27T07:24:45;8.80;;;6.60;;
1076;SDS011;64114;48.726;9.370;2022-11-27T07:27:13;7.67;;;6.27;;
1076;SDS011;64114;48.726;9.370;2022-11-27T07:29:40;8.03;;;6.67;;
1076;SDS011;64114;48.726;9.370;2022-11-27T07:32:08;9.77;;;7.27;;
1076;SDS011;64114;48.726;9.370;2022-11-27T07:34:36;10.97;;;7.93;;
1076;SDS011;64114;48.726;9.370;2022-11-27T07:37:04;8.40;;;6.77;;
1076;SDS011;64114;48.726;9.370;2022-11-27T07:39:32;12.10;;;8.53;;
1076;SDS011;64114;48.726;9.370;2022-11-27T07:42:21;11.50;;;8.20;;
1076;SDS011;64114;48.726;9.370;2022-11-27T07:45:03;12.77;;;8.90;;
1076;SDS011;64114;48.726;9.370;2022-11-27T07:47:32;12.03;;;8.70;;
1076;SDS011;64114;48.726;9.370;2022-11-27T07:49:59;12.33;;;8.13;;
1076;SDS011;64114;48.726;9.370;2022-11-27T07:52:27;10.60;;;7.80;;
1076;SDS011;64114;48.726;9.370;2022-11-27T07:54:55;11.70;;;9.17;;
1076;SDS011;64114;48.726;9.370;2022-11-27T07:57:25;11.30;;;9.80;;
1076;SDS011;64114;48.726;9.370;2022-11-27T07:59:53;11.30;;;8.40;;
1076;SDS011;64114;48.726;9.370;2022-11-27T08:02:21;9.97;;;7.43;;
1076;SDS011;64114;48.726;9.370;2022-11-27T08:04:49;9.90;;;7.70;;
1076;SDS011;64114;48.726;9.370;2022-11-27T08:07:17;8.23;;;7.00;;
1076;SDS011;64114;48.726;9.370;2022-11-27T08:09:45;13.30;;;8.60;;
1076;SDS011;64114;48.726;9.370;2022-11-27T08:12:13;9.73;;;7.90;;
1076;SDS011;64114;48.726;9.370;2022-11-27T08:14:43;11.27;;;7.70;;
1076;SDS011;64114;48.726;9.370;2022-11-27T08:17:11;12.80;;;8.37;;
1076;SDS011;64114;48.726;9.370;2022-11-27T08:19:39;9.13;;;6.90;;
1076;SDS011;64114;48.726;9.370;2022-11-27T08:22:09;10.03;;;6.70;;
1076;SDS011;64114;48.726;9.370;2022-11-27T08:24:38;10.90;;;7.70;;
1076;SDS011;64114;48.726;9.370;2022-11-27T08:27:08;7.77;;;6.23;;
1076;SDS011;64114;48.726;9.370;2022-11-27T08:29:37;6.90;;;6.53;;
1076;SDS011;64114;48.726;9.370;2022-11-27T08:32:06;11.30;;;7.70;;
1076;SDS011;64114;48.726;9.370;2022-11-27T08:34:34;11.37;;;7.70;;
1076;SDS011;64114;48.726;9.370;2022-11-27T08:37:02;10.07;;;7.93;;
1076;SDS011;64114;48.726;9.370;2022-11-27T08:39:31;12.00;;;8.07;;
1076;SDS011;64114;48.726;9.370;2022-11-27T08:41:58;9.47;;;7.33;;
1076;SDS011;64114;48.726;9.370;2022-11-27T08:44:26;10.73;;;8.77;;
1076;SDS011;64114;48.726;9.370;2022-11-27T08:46:54;10.80;;;7.83;;
1076;SDS011;64114;48.726;9.370;2022-11-27T08:49:23;11.17;;;7.67;;
1076;SDS011;64114;48.726;9.370;2022-11-27T08:51:52;7.97;;;7.00;;
1076;SDS011;64114;48.726;9.370;2022-11-27T08:54:19;9.73;;;7.03;;
1076;SDS011;64114;48.726;9.370;2022-11-27T08:56:47;12.33;;;9.17;;
1076;SDS011;64114;48.726;9.370;2022-11-27T08:59:15;11.50;;;7.67;;
1076;SDS011;64114;48.726;9.370;2022-11-27T09:01:42;12.60;;;8.80;;
1076;SDS011;64114;48.726;9.370;2022-11-27T09:04:10;10.43;;;8.40;;
1076;SDS011;64114;48.726;9.370;2022-11-27T09:06:40;15.07;;;9.27;;
1076;SDS011;64114;48.726;9.370;2022-11-27T09:09:08;11.10;;;8.23;;
1076;SDS011;64114;48.726;9.370;2022-11-27T09:11:36;14.87;;;9.00;;
1076;SDS011;64114;48.726;9.370;2022-11-27T09:14:04;18.23;;;8.87;;
1076;SDS011;64114;48.726;9.370;2022-11-27T09:16:32;10.97;;;8.00;;
1076;SDS011;64114;48.726;9.370;2022-11-27T09:19:01;13.10;;;8.20;;
1076;SDS011;64114;48.726;9.370;2022-11-27T09:21:29;10.47;;;8.20;;
1076;SDS011;64114;48.726;9.370;2022-11-27T09:23:59;12.03;;;8.73;;
1076;SDS011;64114;48.726;9.370;2022-11-27T09:26:28;11.13;;;9.73;;
1076;SDS011;64114;48.726;9.370;2022-11-27T09:28:56;15.43;;;9.60;;
1076;SDS011;64114;48.726;9.370;2022-11-27T09:31:25;14.27;;;9.33;;
1076;SDS011;64114;48.726;9.370;2022-11-27T09:33:53;10.57;;;8.27;;
1076;SDS011;64114;48.726;9.370;2022-11-27T09:36:22;14.67;;;9.47;;
1076;SDS011;64114;48.726;9.370;2022-11-27T09:38:51;16.53;;;12.10;;
1076;SDS011;64114;48.726;9.370;2022-11-27T09:41:25;14.93;;;10.30;;
1076;SDS011;64114;48.726;9.370;2022-11-27T09:44:21;16.83;;;10.20;;
1076;SDS011;64114;48.726;9.370;2022-11-27T09:46:53;15.27;;;9.73;;
1076;SDS011;64114;48.726;9.370;2022-11-27T09:49:24;13.30;;;10.23;;
1076;SDS011;64114;48.726;9.370;2022-11-27T09:51:56;13.30;;;9.80;;
1076;SDS011;64114;48.726;9.370;2022-11-27T09:54:31;13.30;;;9.43;;
1076;SDS011;64114;48.726;9.370;2022-11-27T09:57:05;14.00;;;9.33;;
1076;SDS011;64114;48.726;9.370;2022-11-27T09:59:38;17.33;;;11.83;;
1076;SDS011;64114;48.726;9.370;2022-11-27T10:02:14;21.37;;;12.57;;
1076;SDS011;64114;48.726;9.370;2022-11-27T10:04:44;13.60;;;11.10;;
1076;SDS011;64114;48.726;9.370;2022-11-27T10:07:35;16.57;;;11.27;;
1076;SDS011;64114;48.726;9.370;2022-11-27T10:10:19;12.03;;;10.20;;
1076;SDS011;64114;48.726;9.370;2022-11-27T10:13:00;13.40;;;9.70;;
1076;SDS011;64114;48.726;9.370;2022-11-27T10:15:36;13.40;;;9.43;;
1076;SDS011;64114;48.726;9.370;2022-11-27T10:18:10;11.50;;;8.47;;
1076;SDS011;64114;48.726;9.370;2022-11-27T10:20:43;13.37;;;10.40;;
1076;SDS011;64114;48.726;9.370;2022-11-27T10:23:17;13.23;;;9.73;;
1076;SDS011;64114;48.726;9.370;2022-11-27T10:25:53;12.47;;;9.00;;
1076;SDS011;64114;48.726;9.370;2022-11-27T10:28:29;14.07;;;9.97;;
1076;SDS011;64114;48.726;9.370;2022-11-27T10:31:02;12.87;;;9.90;;
1076;SDS011;64114;48.726;9.370;2022-11-27T10:33:37;13.87;;;10.40;;
1076;SDS011;64114;48.726;9.370;2022-11-27T10:36:13;13.80;;;10.03;;
1076;SDS011;64114;48.726;9.370;2022-11-27T10:38:44;12.33;;;9.80;;
1076;SDS011;64114;48.726;9.370;2022-11-27T10:41:15;12.00;;;9.77;;
1076;SDS011;64114;48.726;9.370;2022-11-27T10:44:15;12.67;;;10.53;;
1076;SDS011;64114;48.726;9.370;2022-11-27T10:46:52;13.07;;;10.10;;
1076;SDS011;64114;48.726;9.370;2022-11-27T10:49:24;13.40;;;10.83;;
1076;SDS011;64114;48.726;9.370;2022-11-27T10:51:52;17.50;;;12.07;;
1076;SDS011;64114;48.726;9.370;2022-11-27T10:54:21;21.00;;;13.63;;
1076;SDS011;64114;48.726;9.370;2022-11-27T10:56:57;17.10;;;12.63;;
1076;SDS011;64114;48.726;9.370;2022-11-27T10:59:34;16.13;;;11.27;;
1076;SDS011;64114;48.726;9.370;2022-11-27T11:02:22;14.80;;;11.73;;
1076;SDS011;64114;48.726;9.370;2022-11-27T11:04:53;11.60;;;10.33;;
1076;SDS011;64114;48.726;9.370;2022-11-27T11:07:41;14.20;;;10.10;;
1076;SDS011;64114;48.726;9.370;2022-11-27T11:10:19;12.40;;;10.57;;
1076;SDS011;64114;48.726;9.370;2022-11-27T11:13:02;11.67;;;9.60;;
1076;SDS011;64114;48.726;9.370;2022-11-27T11:15:32;11.47;;;9.73;;
1076;SDS011;64114;48.726;9.370;2022-11-27T11:18:01;15.40;;;11.13;;
1076;SDS011;64114;48.726;9.370;2022-11-27T11:20:29;13.93;;;11.30;;
1076;SDS011;64114;48.726;9.370;2022-11-27T11:22:56;14.47;;;12.13;;
1076;SDS011;64114;48.726;9.370;2022-11-27T11:25:24;12.67;;;10.77;;
1076;SDS011;64114;48.726;9.370;2022-11-27T11:27:52;14.90;;;11.27;;
1076;SDS011;64114;48.726;9.370;2022-11-27T11:30:22;13.47;;;10.97;;
1076;SDS011;64114;48.726;9.370;2022-11-27T11:32:58;15.77;;;11.27;;
1076;SDS011;64114;48.726;9.370;2022-11-27T11:35:28;11.53;;;9.60;;
1076;SDS011;64114;48.726;9.370;2022-11-27T11:37:59;16.13;;;11.30;;
1076;SDS011;64114;48.726;9.370;2022-11-27T11:40:31;16.67;;;10.63;;
1076;SDS011;64114;48.726;9.370;2022-11-27T11:43:02;15.37;;;11.10;;
1076;SDS011;64114;48.726;9.370;2022-11-27T11:45:43;13.80;;;10.87;;
1076;SDS011;64114;48.726;9.370;2022-11-27T11:48:18;14.70;;;10.60;;
1076;SDS011;64114;48.726;9.370;2022-11-27T11:50:50;13.13;;;10.23;;
1076;SDS011;64114;48.726;9.370;2022-11-27T11:53:22;13.30;;;11.10;;
1076;SDS011;64114;48.726;9.370;2022-11-27T11:55:58;12.77;;;10.97;;
1076;SDS011;64114;48.726;9.370;2022-11-27T11:58:41;16.47;;;11.70;;
1076;SDS011;64114;48.726;9.370;2022-11-27T12:01:21;14.90;;;11.53;;
1076;SDS011;64114;48.726;9.370;2022-11-27T12:04:11;15.67;;;12.77;;
1076;SDS011;64114;48.726;9.370;2022-11-27T12:06:52;13.10;;;11.87;;
1076;SDS011;64114;48.726;9.370;2022-11-27T12:09:30;17.40;;;13.60;;
1076;SDS011;64114;48.726;9.370;2022-11-27T12:12:10;14.63;;;12.63;;
1076;SDS011;64114;48.726;9.370;2022-11-27T12:14:49;15.23;;;11.30;;
1076;SDS011;64114;48.726;9.370;2022-11-27T12:17:30;13.30;;;10.70;;
1076;SDS011;64114;48.726;9.370;2022-11-27T12:20:15;12.77;;;11.80;;
1076;SDS011;64114;48.726;9.370;2022-11-27T12:25:53;13.93;;;10.97;;
1076;SDS011;64114;48.726;9.370;2022-11-27T12:28:38;14.53;;;11.40;;
1076;SDS011;64114;48.726;9.370;2022-11-27T12:31:27;17.13;;;11.77;;
1076;SDS011;64114;48.726;9.370;2022-11-27T12:34:10;17.23;;;11.63;;
1076;SDS011;64114;48.726;9.370;2022-11-27T12:36:58;15.07;;;11.70;;
1076;SDS011;64114;48.726;9.370;2022-11-27T12:39:43;19.10;;;12.50;;
1076;SDS011;64114;48.726;9.370;2022-11-27T12:42:23;15.63;;;11.20;;
1076;SDS011;64114;48.726;9.370;2022-11-27T12:44:59;16.27;;;11.90;;
1076;SDS011;64114;48.726;9.370;2022-11-27T12:47:34;15.70;;;11.67;;
1076;SDS011;64114;48.726;9.370;2022-11-27T12:50:07;14.87;;;11.20;;
1076;SDS011;64114;48.726;9.370;2022-11-27T12:52:42;16.10;;;11.67;;
1076;SDS011;64114;48.726;9.370;2022-11-27T12:55:15;13.20;;;10.70;;
1076;SDS011;64114;48.726;9.370;2022-11-27T12:57:48;15.00;;;11.00;;
1076;SDS011;64114;48.726;9.370;2022-11-27T13:00:19;13.77;;;10.50;;
1076;SDS011;64114;48.726;9.370;2022-11-27T13:02:53;15.27;;;11.00;;
1076;SDS011;64114;48.726;9.370;2022-11-27T13:05:29;11.20;;;9.33;;
1076;SDS011;64114;48.726;9.370;2022-11-27T13:08:03;11.27;;;8.70;;
1076;SDS011;64114;48.726;9.370;2022-11-27T13:10:40;12.40;;;9.00;;
1076;SDS011;64114;48.726;9.370;2022-11-27T13:13:13;8.90;;;8.20;;
1076;SDS011;64114;48.726;9.370;2022-11-27T13:15:47;13.43;;;10.00;;
1076;SDS011;64114;48.726;9.370;2022-11-27T13:18:22;10.60;;;9.50;;
1076;SDS011;64114;48.726;9.370;2022-11-27T13:20:59;14.07;;;9.87;;
1076;SDS011;64114;48.726;9.370;2022-11-27T13:23:30;14.43;;;10.27;;
1076;SDS011;64114;48.726;9.370;2022-11-27T13:25:59;11.30;;;9.27;;
1076;SDS011;64114;48.726;9.370;2022-11-27T13:28:34;10.93;;;9.73;;
1076;SDS011;64114;48.726;9.370;2022-11-27T13:31:07;11.47;;;9.33;;
1076;SDS011;64114;48.726;9.370;2022-11-27T13:33:44;15.27;;;10.83;;
1076;SDS011;64114;48.726;9.370;2022-11-27T13:36:17;12.90;;;10.27;;
1076;SDS011;64114;48.726;9.370;2022-11-27T13:38:53;11.10;;;8.77;;
1076;SDS011;64114;48.726;9.370;2022-11-27T13:41:25;11.20;;;9.17;;
1076;SDS011;64114;48.726;9.370;2022-11-27T13:43:59;9.77;;;8.30;;
1076;SDS011;64114;48.726;9.370;2022-11-27T13:46:28;12.93;;;8.90;;
1076;SDS011;64114;48.726;9.370;2022-11-27T13:48:59;12.13;;;8.77;;
1076;SDS011;64114;48.726;9.370;2022-11-27T13:51:31;11.47;;;8.40;;
1076;SDS011;64114;48.726;9.370;2022-11-27T13:54:09;14.17;;;8.87;;
1076;SDS011;64114;48.726;9.370;2022-11-27T13:56:39;11.20;;;8.10;;
1076;SDS011;64114;48.726;9.370;2022-11-27T13:59:14;10.47;;;8.43;;
1076;SDS011;64114;48.726;9.370;2022-11-27T14:01:53;9.97;;;8.47;;
1076;SDS011;64114;48.726;9.370;2022-11-27T14:04:23;9.63;;;8.70;;
1076;SDS011;64114;48.726;9.370;2022-11-27T14:06:52;13.57;;;9.70;;
1076;SDS011;64114;48.726;9.370;2022-11-27T14:09:37;12.63;;;9.70;;
1076;SDS011;64114;48.726;9.370;2022-11-27T14:12:15;12.23;;;9.23;;
1076;SDS011;64114;48.726;9.370;2022-11-27T14:15:00;11.17;;;8.57;;
1076;SDS011;64114;48.726;9.370;2022-11-27T14:17:35;10.23;;;7.30;;
1076;SDS011;64114;48.726;9.370;2022-11-27T14:20:18;8.70;;;7.93;;
1076;SDS011;64114;48.726;9.370;2022-11-27T14:22:50;14.10;;;9.40;;
1076;SDS011;64114;48.726;9.370;2022-11-27T14:25:40;10.33;;;8.10;;
1076;SDS011;64114;48.726;9.370;2022-11-27T14:28:12;12.80;;;8.50;;
1076;SDS011;64114;48.726;9.370;2022-11-27T14:30:44;9.90;;;9.13;;
1076;SDS011;64114;48.726;9.370;2022-11-27T14:33:18;12.80;;;9.33;;
1076;SDS011;64114;48.726;9.370;2022-11-27T14:35:48;11.60;;;9.53;;
1076;SDS011;64114;48.726;9.370;2022-11-27T14:38:17;15.40;;;11.00;;
1076;SDS011;64114;48.726;9.370;2022-11-27T14:40:47;14.30;;;10.30;;
1076;SDS011;64114;48.726;9.370;2022-11-27T14:43:18;17.23;;;12.87;;
1076;SDS011;64114;48.726;9.370;2022-11-27T14:45:50;11.13;;;9.33;;
1076;SDS011;64114;48.726;9.370;2022-11-27T14:48:21;10.27;;;8.77;;
1076;SDS011;64114;48.726;9.370;2022-11-27T14:50:51;12.83;;;8.63;;
1076;SDS011;64114;48.726;9.370;2022-11-27T14:53:21;9.60;;;6.90;;
1076;SDS011;64114;48.726;9.370;2022-11-27T14:55:54;10.30;;;7.40;;
1076;SDS011;64114;48.726;9.370;2022-11-27T14:58:25;9.13;;;6.47;;
1076;SDS011;64114;48.726;9.370;2022-11-27T15:00:56;7.13;;;5.30;;
1076;SDS011;64114;48.726;9.370;2022-11-27T15:03:25;8.33;;;5.00;;
1076;SDS011;64114;48.726;9.370;2022-11-27T15:05:55;8.70;;;5.20;;
1076;SDS011;64114;48.726;9.370;2022-11-27T15:08:25;9.10;;;7.40;;
1076;SDS011;64114;48.726;9.370;2022-11-27T15:10:55;6.93;;;4.20;;
1076;SDS011;64114;48.726;9.370;2022-11-27T15:13:25;10.33;;;7.60;;
1076;SDS011;64114;48.726;9.370;2022-11-27T15:15:57;6.33;;;4.97;;
1076;SDS011;64114;48.726;9.370;2022-11-27T15:18:30;10.33;;;6.63;;